Time;durP1;ratioP1;P1;durP2;ratioP2;P2;SDS_P1;SDS_P2;PMS_P1;PMS_P2;Temp;Humidity;BMP_temperature;BMP_pressure;BME280_temperature;BME280_humidity;BME280_pressure;Samples;Min_cycle;Max_cycle;Signal;HPM_P1;HPM_P2
2023/07/03 00:01:09;;;;;;;7.83;5.17;;;19.70;87.80;;;;;;5075551;28;20463;-78
2023/07/03 00:03:38;;;;;;;10.67;5.67;;;19.70;87.90;;;;;;5078819;28;20531;-81
2023/07/03 00:06:05;;;;;;;6.90;4.83;;;19.60;88.20;;;;;;5078835;28;20810;-79
2023/07/03 00:08:32;;;;;;;6.97;5.30;;;19.60;88.20;;;;;;5076637;28;20800;-80
2023/07/03 00:11:01;;;;;;;7.23;6.07;;;19.60;88.20;;;;;;5077313;28;20477;-79
2023/07/03 00:13:28;;;;;;;7.50;5.87;;;19.60;88.40;;;;;;5075604;28;21013;-78
2023/07/03 00:15:59;;;;;;;8.07;7.47;;;19.60;88.40;;;;;;5076135;28;20498;-77
2023/07/03 00:18:28;;;;;;;7.43;6.00;;;19.60;88.60;;;;;;5074573;28;20445;-79
2023/07/03 00:20:55;;;;;;;8.47;5.50;;;19.50;88.60;;;;;;5075761;28;20466;-78
2023/07/03 00:23:23;;;;;;;8.33;5.23;;;19.50;89.00;;;;;;5075152;28;20474;-77
2023/07/03 00:25:50;;;;;;;8.03;5.37;;;19.50;89.30;;;;;;5075549;28;20489;-77
2023/07/03 00:28:18;;;;;;;7.93;5.70;;;19.40;89.60;;;;;;5075103;28;20539;-80
2023/07/03 00:30:46;;;;;;;8.23;5.93;;;19.40;89.90;;;;;;5075556;28;20511;-79
2023/07/03 00:33:13;;;;;;;6.20;4.20;;;19.40;90.30;;;;;;5075138;28;20991;-79
2023/07/03 00:35:41;;;;;;;7.17;5.10;;;19.40;89.90;;;;;;5074851;28;20816;-79
2023/07/03 00:38:08;;;;;;;7.30;4.87;;;19.40;90.10;;;;;;5074822;28;20474;-78
2023/07/03 00:40:35;;;;;;;4.90;4.40;;;19.30;90.10;;;;;;5075631;28;20488;-78
2023/07/03 00:43:03;;;;;;;5.53;5.00;;;19.30;90.10;;;;;;5075287;28;20466;-79
2023/07/03 00:45:32;;;;;;;7.97;6.07;;;19.30;90.10;;;;;;5074718;28;20454;-79
2023/07/03 00:48:00;;;;;;;6.50;5.80;;;19.30;90.30;;;;;;5075296;28;20536;-77
2023/07/03 00:50:27;;;;;;;5.27;4.77;;;19.30;90.40;;;;;;5074196;28;20557;-78
2023/07/03 00:53:00;;;;;;;6.27;5.40;;;19.20;90.40;;;;;;5075293;28;20501;-79
2023/07/03 00:55:27;;;;;;;6.93;5.20;;;19.20;90.60;;;;;;5074626;28;20507;-77
2023/07/03 00:57:54;;;;;;;8.27;5.80;;;19.20;90.70;;;;;;5075345;28;20519;-78
2023/07/03 01:00:26;;;;;;;7.30;5.10;;;19.20;90.90;;;;;;5073856;28;20559;-77
2023/07/03 01:03:00;;;;;;;7.37;5.50;;;19.20;91.10;;;;;;5075209;28;20463;-81
2023/07/03 01:05:30;;;;;;;10.77;6.03;;;19.10;91.30;;;;;;5074343;28;20473;-79
2023/07/03 01:08:00;;;;;;;6.53;5.00;;;19.10;91.40;;;;;;5074777;28;20470;-79
2023/07/03 01:10:31;;;;;;;9.97;5.47;;;19.10;91.40;;;;;;5074542;28;20474;-77
2023/07/03 01:13:01;;;;;;;7.30;5.27;;;19.10;91.60;;;;;;5074309;28;20470;-80
2023/07/03 01:15:32;;;;;;;8.37;5.70;;;19.00;91.60;;;;;;5074791;28;20474;-78
2023/07/03 01:18:02;;;;;;;6.30;4.70;;;19.00;91.70;;;;;;5075056;28;20963;-79
2023/07/03 01:20:33;;;;;;;7.73;5.47;;;19.00;91.90;;;;;;5074743;28;20812;-79
2023/07/03 01:23:05;;;;;;;6.90;5.67;;;19.00;92.00;;;;;;5074099;28;20509;-77
2023/07/03 01:25:36;;;;;;;7.03;5.67;;;18.90;92.00;;;;;;5074349;28;20558;-78
2023/07/03 01:28:04;;;;;;;6.70;6.10;;;19.00;92.20;;;;;;5074342;28;20479;-79
2023/07/03 01:30:32;;;;;;;8.00;5.40;;;19.00;92.20;;;;;;5074224;28;20463;-78
2023/07/03 01:33:03;;;;;;;5.97;5.20;;;19.00;92.30;;;;;;5074340;28;20470;-78
2023/07/03 01:35:32;;;;;;;6.07;5.53;;;19.00;92.30;;;;;;5073649;28;20478;-79
2023/07/03 01:38:01;;;;;;;11.43;5.90;;;19.00;92.50;;;;;;5074690;28;20478;-78
2023/07/03 01:40:30;;;;;;;6.07;5.30;;;19.00;92.50;;;;;;5074097;28;20502;-79
2023/07/03 01:42:58;;;;;;;7.20;6.13;;;19.00;92.60;;;;;;5078791;28;20470;-77
2023/07/03 01:45:27;;;;;;;9.80;5.83;;;18.90;92.50;;;;;;5084890;28;20471;-78
2023/07/03 01:47:54;;;;;;;6.33;5.53;;;18.90;92.60;;;;;;5077369;28;20473;-78
2023/07/03 01:50:25;;;;;;;7.23;5.57;;;19.00;92.80;;;;;;5073562;28;20473;-78
2023/07/03 01:52:55;;;;;;;7.40;5.50;;;19.00;92.70;;;;;;5074272;28;20478;-78
2023/07/03 01:55:30;;;;;;;9.37;6.43;;;19.00;92.80;;;;;;5073250;28;20535;-78
2023/07/03 01:58:03;;;;;;;6.83;5.47;;;19.00;93.00;;;;;;5074068;28;20484;-78
2023/07/03 02:00:37;;;;;;;10.57;6.33;;;19.00;93.00;;;;;;5072862;28;21012;-79
2023/07/03 02:03:14;;;;;;;9.10;5.17;;;19.00;93.00;;;;;;5074076;28;20485;-78
2023/07/03 02:05:41;;;;;;;8.67;5.40;;;19.00;93.10;;;;;;5073634;28;20515;-80
2023/07/03 02:08:11;;;;;;;8.40;5.20;;;19.00;93.00;;;;;;5073551;28;20473;-80
2023/07/03 02:10:38;;;;;;;7.00;4.90;;;19.00;93.10;;;;;;5073095;28;21189;-78
2023/07/03 02:13:07;;;;;;;9.53;6.30;;;19.00;93.10;;;;;;5073589;28;20474;-80
2023/07/03 02:15:34;;;;;;;8.07;5.20;;;19.00;93.20;;;;;;5073044;28;20471;-79
2023/07/03 02:18:01;;;;;;;6.30;5.33;;;19.00;93.20;;;;;;5073910;28;20462;-79
2023/07/03 02:20:29;;;;;;;9.27;6.20;;;19.10;93.20;;;;;;5073302;28;20559;-77
2023/07/03 02:22:57;;;;;;;8.93;6.17;;;19.10;93.10;;;;;;5073503;28;20458;-77
2023/07/03 02:25:24;;;;;;;7.47;5.40;;;19.10;93.10;;;;;;5072006;28;20569;-79
2023/07/03 02:27:51;;;;;;;7.33;5.10;;;19.00;93.20;;;;;;5073282;28;20462;-78
2023/07/03 02:30:19;;;;;;;10.07;6.03;;;19.00;93.20;;;;;;5073165;28;20466;-78
2023/07/03 02:32:46;;;;;;;9.53;5.83;;;19.00;93.30;;;;;;5072932;28;20477;-77
2023/07/03 02:35:13;;;;;;;7.50;5.03;;;19.00;93.40;;;;;;5073251;28;20501;-78
2023/07/03 02:37:40;;;;;;;6.27;5.27;;;19.10;93.50;;;;;;5072634;28;20539;-79
2023/07/03 02:40:10;;;;;;;6.70;5.17;;;19.10;93.50;;;;;;5072704;28;20508;-79
2023/07/03 02:42:37;;;;;;;13.23;5.70;;;19.00;93.60;;;;;;5072881;28;20561;-79
2023/07/03 02:45:08;;;;;;;6.60;4.80;;;19.10;94.00;;;;;;5073325;28;20462;-79
2023/07/03 02:47:37;;;;;;;10.30;6.10;;;19.10;93.70;;;;;;5073217;28;20493;-79
2023/07/03 02:50:04;;;;;;;8.57;5.90;;;19.10;93.60;;;;;;5073428;28;20462;-79
2023/07/03 02:52:32;;;;;;;6.73;5.63;;;19.10;93.50;;;;;;5072466;28;20470;-79
2023/07/03 02:54:59;;;;;;;8.30;5.17;;;19.10;93.40;;;;;;5073024;28;20462;-80
2023/07/03 02:57:28;;;;;;;7.67;5.70;;;19.10;93.70;;;;;;5072941;28;20786;-78
2023/07/03 02:59:58;;;;;;;9.10;5.90;;;19.10;93.60;;;;;;5060959;28;20556;-78
2023/07/03 03:02:27;;;;;;;9.17;5.37;;;19.00;93.60;;;;;;5084797;28;20458;-79
2023/07/03 03:04:55;;;;;;;8.70;4.83;;;19.00;93.50;;;;;;5072700;28;20458;-77
2023/07/03 03:07:22;;;;;;;7.30;6.10;;;19.00;93.60;;;;;;5073189;28;20804;-79
2023/07/03 03:09:49;;;;;;;8.80;5.80;;;19.00;93.70;;;;;;5072427;28;20478;-77
2023/07/03 03:12:16;;;;;;;9.57;5.00;;;19.00;93.70;;;;;;5073168;28;20515;-79
2023/07/03 03:14:44;;;;;;;11.47;5.67;;;19.00;93.70;;;;;;5072322;28;20470;-80
2023/07/03 03:17:12;;;;;;;8.53;6.10;;;19.00;93.90;;;;;;5072346;28;20467;-79
2023/07/03 03:19:39;;;;;;;9.17;5.87;;;19.00;93.90;;;;;;5072495;28;20466;-79
2023/07/03 03:22:07;;;;;;;8.67;6.23;;;19.00;94.20;;;;;;5072887;28;20466;-80
2023/07/03 03:24:34;;;;;;;7.67;5.57;;;19.00;94.20;;;;;;5072689;28;20473;-78
2023/07/03 03:27:06;;;;;;;9.80;6.27;;;18.90;94.10;;;;;;5072651;28;20466;-78
2023/07/03 03:29:33;;;;;;;9.40;6.30;;;18.90;94.30;;;;;;5073113;28;20474;-79
2023/07/03 03:32:00;;;;;;;8.93;5.10;;;18.90;94.40;;;;;;5072243;28;20462;-79
2023/07/03 03:34:27;;;;;;;6.77;6.07;;;19.00;94.50;;;;;;5073284;28;20559;-79
2023/07/03 03:36:59;;;;;;;6.83;5.40;;;18.90;94.60;;;;;;5072480;28;20476;-80
2023/07/03 03:39:28;;;;;;;7.13;5.87;;;18.90;94.50;;;;;;5072945;28;20542;-79
2023/07/03 03:41:55;;;;;;;8.00;6.17;;;18.90;94.50;;;;;;5072259;28;20470;-77
2023/07/03 03:44:22;;;;;;;6.67;5.63;;;18.90;94.50;;;;;;5072568;28;20481;-78
2023/07/03 03:46:49;;;;;;;11.30;5.47;;;18.90;94.50;;;;;;5072590;28;20466;-77
2023/07/03 03:49:16;;;;;;;9.10;6.20;;;19.00;94.50;;;;;;5072107;28;20470;-80
2023/07/03 03:51:43;;;;;;;8.20;5.30;;;19.00;94.40;;;;;;5073441;28;20493;-80
2023/07/03 03:54:11;;;;;;;7.73;5.20;;;19.00;94.40;;;;;;5076604;28;20504;-80
2023/07/03 03:56:39;;;;;;;7.60;5.07;;;19.00;94.30;;;;;;5076143;28;20854;-78
2023/07/03 03:59:06;;;;;;;6.83;5.10;;;19.10;94.30;;;;;;5077432;28;20493;-78
2023/07/03 04:01:34;;;;;;;7.07;5.23;;;19.10;94.30;;;;;;5078992;28;20466;-78
2023/07/03 04:04:01;;;;;;;6.07;4.57;;;19.10;94.30;;;;;;5076922;28;20462;-79
2023/07/03 04:06:29;;;;;;;8.10;5.73;;;19.20;94.40;;;;;;5076782;28;20807;-77
2023/07/03 04:08:59;;;;;;;8.90;6.50;;;19.20;94.40;;;;;;5076049;28;20527;-78
2023/07/03 04:11:26;;;;;;;11.90;5.97;;;19.10;94.40;;;;;;5076112;28;20465;-80
2023/07/03 04:13:55;;;;;;;9.13;5.27;;;19.20;94.50;;;;;;5075035;28;20483;-77
2023/07/03 04:16:27;;;;;;;8.80;5.70;;;19.20;94.60;;;;;;5075428;28;20975;-78
2023/07/03 04:18:54;;;;;;;10.43;6.57;;;19.20;94.90;;;;;;5075826;28;20847;-80
2023/07/03 04:21:24;;;;;;;8.37;6.00;;;19.20;94.60;;;;;;5075917;28;20523;-79
2023/07/03 04:23:51;;;;;;;11.67;6.50;;;19.20;94.60;;;;;;5075007;28;20844;-80
2023/07/03 04:26:18;;;;;;;6.70;5.47;;;19.20;94.70;;;;;;5074708;28;20485;-78
2023/07/03 04:28:45;;;;;;;6.90;5.90;;;19.30;94.70;;;;;;5075337;28;20797;-78
2023/07/03 04:31:16;;;;;;;7.97;5.93;;;19.30;94.70;;;;;;5075401;28;20501;-78
2023/07/03 04:33:45;;;;;;;6.37;5.07;;;19.40;95.00;;;;;;5073718;28;20959;-79
2023/07/03 04:36:13;;;;;;;6.30;5.37;;;19.40;94.60;;;;;;5075685;28;20466;-78
2023/07/03 04:38:41;;;;;;;8.27;5.90;;;19.40;94.70;;;;;;5075520;28;20821;-78
2023/07/03 04:41:09;;;;;;;7.87;6.23;;;19.40;94.80;;;;;;5074872;28;20588;-78
2023/07/03 04:43:36;;;;;;;6.70;5.50;;;19.40;94.60;;;;;;5075659;28;20482;-77
2023/07/03 04:46:04;;;;;;;8.37;6.13;;;19.40;94.60;;;;;;5074863;28;20466;-79
2023/07/03 04:48:32;;;;;;;8.17;5.77;;;19.50;94.70;;;;;;5075256;28;20473;-79
2023/07/03 04:51:00;;;;;;;7.97;5.87;;;19.60;94.60;;;;;;5074929;28;20539;-78
2023/07/03 04:53:26;;;;;;;10.00;5.43;;;19.60;94.50;;;;;;5075305;28;20527;-79
2023/07/03 04:55:54;;;;;;;12.23;7.03;;;19.60;94.20;;;;;;5073293;28;20504;-80
2023/07/03 04:58:21;;;;;;;11.53;6.70;;;19.60;94.30;;;;;;5074370;28;20478;-79
2023/07/03 05:00:48;;;;;;;6.07;5.37;;;19.70;94.40;;;;;;5074600;28;20466;-79
2023/07/03 05:03:17;;;;;;;8.20;6.37;;;19.70;94.40;;;;;;5074719;28;20992;-77
2023/07/03 05:05:45;;;;;;;11.00;6.93;;;19.70;94.40;;;;;;5074703;28;20470;-78
2023/07/03 05:08:12;;;;;;;9.10;6.60;;;19.80;94.40;;;;;;5074909;28;20478;-77
2023/07/03 05:10:39;;;;;;;9.20;6.00;;;19.80;94.50;;;;;;5074989;28;20477;-77
2023/07/03 05:13:06;;;;;;;6.33;5.67;;;19.80;94.50;;;;;;5073771;28;20494;-78
2023/07/03 05:15:34;;;;;;;10.63;6.40;;;19.90;94.40;;;;;;5074874;28;20519;-79
2023/07/03 05:18:01;;;;;;;6.53;5.50;;;19.90;94.40;;;;;;5074583;28;20581;-77
2023/07/03 05:20:29;;;;;;;7.63;5.70;;;20.00;94.30;;;;;;5074837;28;20470;-78
2023/07/03 05:22:58;;;;;;;8.13;6.27;;;20.00;94.20;;;;;;5074398;28;20542;-77
2023/07/03 05:25:25;;;;;;;9.90;6.80;;;20.10;94.10;;;;;;5074210;28;20474;-81
2023/07/03 05:27:52;;;;;;;7.80;6.33;;;20.20;94.10;;;;;;5073921;28;20535;-79
2023/07/03 05:30:19;;;;;;;12.47;7.40;;;20.20;94.00;;;;;;5074564;28;21025;-77
2023/07/03 05:32:46;;;;;;;7.40;5.17;;;20.30;93.90;;;;;;5074174;28;20528;-78
2023/07/03 05:35:13;;;;;;;8.93;6.97;;;20.30;93.60;;;;;;5074323;28;20454;-80
2023/07/03 05:37:40;;;;;;;8.93;5.60;;;20.40;93.60;;;;;;5075041;28;20514;-79
2023/07/03 05:40:09;;;;;;;7.50;5.83;;;20.40;93.50;;;;;;5074834;28;20466;-78
2023/07/03 05:42:37;;;;;;;9.80;6.57;;;20.50;93.50;;;;;;5075296;28;20470;-79
2023/07/03 05:45:05;;;;;;;11.00;6.80;;;20.60;93.50;;;;;;5074682;28;21027;-78
2023/07/03 05:47:34;;;;;;;8.50;6.23;;;20.60;93.50;;;;;;5075220;28;20470;-79
2023/07/03 05:50:01;;;;;;;11.50;6.63;;;20.60;93.40;;;;;;5074649;28;20473;-78
2023/07/03 05:52:28;;;;;;;12.10;7.37;;;20.70;93.40;;;;;;5074722;28;20462;-77
2023/07/03 05:54:55;;;;;;;8.50;7.10;;;20.60;93.10;;;;;;5074190;28;20466;-78
2023/07/03 05:57:23;;;;;;;10.40;7.17;;;20.60;93.10;;;;;;5075258;28;20473;-77
2023/07/03 05:59:50;;;;;;;11.80;7.40;;;20.70;93.10;;;;;;5074513;28;20470;-79
2023/07/03 06:02:18;;;;;;;12.53;7.03;;;20.70;93.00;;;;;;5065417;28;20450;-80
2023/07/03 06:04:47;;;;;;;12.40;6.90;;;20.60;93.00;;;;;;5074761;28;20546;-80
2023/07/03 06:07:14;;;;;;;10.80;7.37;;;20.60;93.10;;;;;;5073977;28;20470;-78
2023/07/03 06:09:41;;;;;;;13.90;7.07;;;20.60;93.20;;;;;;5073903;28;20462;-77
2023/07/03 06:12:09;;;;;;;10.43;6.67;;;20.50;93.20;;;;;;5073109;28;20462;-78
2023/07/03 06:14:37;;;;;;;11.33;6.90;;;20.60;93.10;;;;;;5073269;28;20969;-78
2023/07/03 06:17:05;;;;;;;8.13;6.50;;;20.60;93.00;;;;;;5073243;28;20494;-79
2023/07/03 06:19:32;;;;;;;7.50;6.07;;;20.60;93.10;;;;;;5074425;28;20781;-79
2023/07/03 06:21:59;;;;;;;9.07;6.37;;;20.70;93.40;;;;;;5072771;28;20470;-78
2023/07/03 06:24:26;;;;;;;9.63;6.93;;;20.70;93.10;;;;;;5065726;28;20462;-77
2023/07/03 06:26:58;;;;;;;15.60;6.27;;;20.90;92.90;;;;;;5076367;28;20478;-80
2023/07/03 06:29:25;;;;;;;10.00;6.53;;;20.90;92.90;;;;;;5077858;28;20489;-77
2023/07/03 06:31:55;;;;;;;10.70;6.50;;;21.00;92.70;;;;;;5078699;28;20951;-79
2023/07/03 06:34:23;;;;;;;9.77;5.53;;;21.10;92.70;;;;;;5074121;28;20948;-80
2023/07/03 06:37:10;;;;;;;6.37;5.77;;;21.20;93.00;;;;;;5074064;28;20474;-78
2023/07/03 06:39:39;;;;;;;8.30;6.37;;;21.40;92.80;;;;;;5074370;28;20454;-80
2023/07/03 06:42:09;;;;;;;9.70;6.20;;;21.50;92.60;;;;;;5073401;28;20451;-79
2023/07/03 06:44:40;;;;;;;15.23;6.23;;;21.70;92.20;;;;;;5073445;28;20547;-77
2023/07/03 06:47:08;;;;;;;7.77;6.20;;;21.80;91.80;;;;;;5072981;28;20469;-79
2023/07/03 06:49:38;;;;;;;8.80;6.03;;;21.90;91.80;;;;;;5073449;28;20466;-80
2023/07/03 06:52:06;;;;;;;11.93;7.97;;;21.90;91.70;;;;;;5072955;28;20466;-79
2023/07/03 06:54:33;;;;;;;8.00;6.43;;;21.70;91.70;;;;;;5073462;28;20505;-78
2023/07/03 06:57:00;;;;;;;13.50;7.07;;;21.70;92.00;;;;;;5072656;28;20495;-77
2023/07/03 06:59:28;;;;;;;7.37;6.20;;;21.60;92.00;;;;;;5073423;28;20490;-80
2023/07/03 07:01:55;;;;;;;12.07;7.20;;;21.50;92.10;;;;;;5072100;28;20540;-79
2023/07/03 07:04:27;;;;;;;10.30;7.60;;;21.50;92.20;;;;;;5073166;28;20987;-78
2023/07/03 07:06:54;;;;;;;11.40;6.63;;;21.50;92.30;;;;;;5072016;28;20532;-79
2023/07/03 07:09:42;;;;;;;11.10;6.33;;;21.50;92.40;;;;;;5072866;28;20474;-79
2023/07/03 07:12:09;;;;;;;12.37;6.80;;;21.50;92.60;;;;;;5072440;28;21030;-79
2023/07/03 07:14:37;;;;;;;9.07;6.43;;;21.50;92.60;;;;;;5072789;28;20506;-78
2023/07/03 07:17:04;;;;;;;13.10;7.23;;;21.60;92.50;;;;;;5072468;28;20964;-78
2023/07/03 07:19:32;;;;;;;9.60;6.57;;;21.50;92.40;;;;;;5072986;28;20531;-78
2023/07/03 07:21:59;;;;;;;9.67;5.93;;;21.60;92.40;;;;;;5072518;28;20551;-78
2023/07/03 07:24:27;;;;;;;12.17;6.93;;;21.60;92.70;;;;;;5073012;28;20462;-78
2023/07/03 07:26:57;;;;;;;9.90;5.90;;;21.60;92.60;;;;;;5073933;28;20489;-77
2023/07/03 07:29:25;;;;;;;9.83;6.73;;;21.60;92.40;;;;;;5076737;28;20474;-78
2023/07/03 07:31:54;;;;;;;11.63;5.80;;;21.60;92.60;;;;;;5076312;28;20462;-77
2023/07/03 07:34:21;;;;;;;11.60;6.53;;;21.70;92.30;;;;;;5076406;28;20494;-77
2023/07/03 07:36:49;;;;;;;11.57;6.07;;;21.70;92.20;;;;;;5076316;28;20466;-77
2023/07/03 07:39:19;;;;;;;13.80;6.73;;;21.80;92.20;;;;;;5076569;28;20458;-79
2023/07/03 07:41:46;;;;;;;9.67;6.50;;;21.70;92.10;;;;;;5076676;28;20470;-78
2023/07/03 07:44:13;;;;;;;9.67;5.83;;;21.70;92.10;;;;;;5076029;28;20492;-78
2023/07/03 07:46:40;;;;;;;8.20;6.43;;;21.60;91.90;;;;;;5075890;28;20474;-79
2023/07/03 07:49:07;;;;;;;11.57;6.23;;;21.70;91.90;;;;;;5075427;28;20968;-80
2023/07/03 07:51:34;;;;;;;9.23;5.73;;;21.70;92.00;;;;;;5076435;28;20462;-79
2023/07/03 07:54:04;;;;;;;7.60;5.33;;;21.80;92.00;;;;;;5074623;28;20573;-79
2023/07/03 07:56:32;;;;;;;10.10;6.50;;;21.90;92.00;;;;;;5085135;28;20485;-79
2023/07/03 07:58:58;;;;;;;8.87;6.60;;;21.90;91.90;;;;;;5078013;28;20470;-79
2023/07/03 08:01:25;;;;;;;14.33;7.77;;;22.00;92.00;;;;;;5076310;28;20539;-80
2023/07/03 08:03:52;;;;;;;10.27;6.70;;;21.90;92.10;;;;;;5076233;28;20470;-79
2023/07/03 08:06:20;;;;;;;11.50;6.17;;;22.00;92.20;;;;;;5075349;28;20524;-78
2023/07/03 08:08:50;;;;;;;10.43;5.80;;;22.20;92.30;;;;;;5076010;28;20462;-79
2023/07/03 08:11:19;;;;;;;13.07;6.93;;;22.30;92.10;;;;;;5075609;28;20482;-78
2023/07/03 08:13:46;;;;;;;15.53;6.40;;;22.60;92.30;;;;;;5075503;28;20565;-79
2023/07/03 08:16:15;;;;;;;8.40;6.03;;;22.60;91.70;;;;;;5074931;28;20532;-79
2023/07/03 08:18:42;;;;;;;9.87;6.60;;;22.70;91.40;;;;;;5075780;28;20467;-79
2023/07/03 08:21:09;;;;;;;12.23;5.50;;;22.80;91.20;;;;;;5066577;28;20462;-77
2023/07/03 08:23:36;;;;;;;8.53;5.87;;;22.90;91.20;;;;;;5090091;28;20469;-78
2023/07/03 08:26:04;;;;;;;9.43;5.53;;;23.00;91.10;;;;;;5075186;28;20501;-78
2023/07/03 08:28:32;;;;;;;10.00;6.20;;;23.10;91.00;;;;;;5075837;28;20476;-79
2023/07/03 08:31:00;;;;;;;15.80;6.30;;;23.30;90.40;;;;;;5075682;28;20591;-77
2023/07/03 08:33:27;;;;;;;7.30;5.83;;;23.20;90.00;;;;;;5074876;28;20469;-79
2023/07/03 08:35:54;;;;;;;7.70;5.70;;;23.20;89.50;;;;;;5075278;28;20542;-80
2023/07/03 08:38:21;;;;;;;11.00;5.67;;;23.30;89.50;;;;;;5074181;28;20972;-80
2023/07/03 08:40:58;;;;;;;10.83;6.37;;;23.30;88.90;;;;;;5075584;28;20812;-79
2023/07/03 08:43:31;;;;;;;8.23;5.50;;;23.30;89.10;;;;;;5075029;28;20450;-80
2023/07/03 08:46:02;;;;;;;8.67;5.80;;;23.40;89.40;;;;;;5075402;28;20469;-80
2023/07/03 08:48:30;;;;;;;10.97;5.67;;;23.50;88.70;;;;;;5075349;28;20465;-79
2023/07/03 08:51:00;;;;;;;9.90;6.47;;;23.50;86.90;;;;;;5075339;28;20466;-78
2023/07/03 08:53:32;;;;;;;5.20;4.53;;;23.60;87.10;;;;;;5074801;28;20817;-79
2023/07/03 08:56:04;;;;;;;7.50;5.83;;;23.60;86.50;;;;;;5075047;28;20466;-80
2023/07/03 08:58:31;;;;;;;7.90;5.30;;;23.70;84.30;;;;;;5074997;28;20450;-80
2023/07/03 09:01:15;;;;;;;7.23;5.13;;;23.80;84.80;;;;;;5075047;28;20493;-78
2023/07/03 09:03:53;;;;;;;9.30;5.17;;;23.80;84.90;;;;;;5074713;28;20494;-78
2023/07/03 09:06:25;;;;;;;11.57;5.40;;;23.80;84.30;;;;;;5074452;28;20791;-80
2023/07/03 09:09:03;;;;;;;8.27;5.80;;;23.70;85.20;;;;;;5075159;28;20997;-79
2023/07/03 09:11:39;;;;;;;8.57;5.67;;;23.90;85.30;;;;;;5074804;28;20470;-78
2023/07/03 09:14:12;;;;;;;9.70;5.77;;;23.80;82.10;;;;;;5074341;28;20527;-78
2023/07/03 09:16:42;;;;;;;10.10;5.00;;;23.90;82.40;;;;;;5074530;28;20964;-78
2023/07/03 09:19:16;;;;;;;5.57;4.00;;;23.90;79.20;;;;;;5074610;28;20967;-79
2023/07/03 09:21:47;;;;;;;7.03;4.40;;;23.90;78.00;;;;;;5074941;28;20465;-79
2023/07/03 09:24:21;;;;;;;5.30;4.27;;;24.00;75.00;;;;;;5074205;28;20466;-79
2023/07/03 09:26:53;;;;;;;6.03;4.80;;;24.20;75.40;;;;;;5074522;28;20505;-77
2023/07/03 09:29:21;;;;;;;9.20;5.30;;;24.30;75.60;;;;;;5073780;28;20494;-78
2023/07/03 09:31:52;;;;;;;7.77;4.50;;;24.30;73.10;;;;;;5074739;28;20458;-79
2023/07/03 09:34:20;;;;;;;10.07;4.73;;;24.20;72.40;;;;;;5074087;28;20474;-79
2023/07/03 09:36:58;;;;;;;9.30;5.07;;;24.00;72.60;;;;;;5073971;28;20559;-78
2023/07/03 09:39:26;;;;;;;5.70;3.50;;;24.10;73.10;;;;;;5073595;28;20512;-79
2023/07/03 09:41:54;;;;;;;5.73;4.30;;;24.10;73.10;;;;;;5074299;28;20481;-79
2023/07/03 09:44:23;;;;;;;7.73;4.70;;;24.10;72.20;;;;;;5073435;28;20473;-79
2023/07/03 09:46:51;;;;;;;7.73;4.57;;;24.20;71.60;;;;;;5074595;28;20886;-78
2023/07/03 09:49:24;;;;;;;8.17;4.87;;;24.20;70.10;;;;;;5073419;28;20470;-78
2023/07/03 09:51:53;;;;;;;5.13;4.10;;;24.20;69.70;;;;;;5074196;28;20500;-80
2023/07/03 09:54:29;;;;;;;6.83;4.67;;;24.30;69.50;;;;;;5073933;28;20466;-79
2023/07/03 09:56:57;;;;;;;7.57;4.80;;;24.20;70.20;;;;;;5074156;28;20481;-80
2023/07/03 09:59:25;;;;;;;9.47;4.33;;;24.10;69.80;;;;;;5073495;28;20466;-80
2023/07/03 10:02:00;;;;;;;5.70;4.23;;;24.10;70.90;;;;;;5073896;28;20478;-80
2023/07/03 10:04:39;;;;;;;9.27;4.50;;;24.10;71.20;;;;;;5073416;28;20469;-78
2023/07/03 10:07:08;;;;;;;7.00;4.73;;;24.10;71.60;;;;;;5073639;28;20557;-79
2023/07/03 10:09:41;;;;;;;7.67;4.33;;;24.10;71.20;;;;;;5073476;28;20450;-79
2023/07/03 10:12:16;;;;;;;9.83;5.33;;;24.10;71.30;;;;;;5073133;28;20476;-78
2023/07/03 10:14:49;;;;;;;7.03;5.10;;;24.00;71.60;;;;;;5073436;28;20515;-79
2023/07/03 10:17:41;;;;;;;5.93;3.90;;;23.90;70.70;;;;;;5073789;28;20959;-79
2023/07/03 10:20:13;;;;;;;7.70;3.90;;;24.00;69.80;;;;;;5052169;28;20458;-80
2023/07/03 10:22:43;;;;;;;7.60;3.90;;;24.00;70.20;;;;;;5073651;28;20466;-80
2023/07/03 10:25:18;;;;;;;8.77;4.50;;;24.00;69.50;;;;;;5072758;28;20478;-79
2023/07/03 10:27:46;;;;;;;7.20;3.87;;;24.00;69.70;;;;;;5073756;28;20463;-80
2023/07/03 10:30:24;;;;;;;10.47;4.30;;;24.00;70.00;;;;;;5072751;28;20467;-80
2023/07/03 10:32:56;;;;;;;7.03;4.10;;;24.00;69.80;;;;;;5073236;28;20994;-78
2023/07/03 10:35:27;;;;;;;7.23;4.27;;;24.00;68.20;;;;;;5071794;28;20473;-78
2023/07/03 10:38:12;;;;;;;4.20;3.37;;;23.90;68.60;;;;;;5073321;28;20474;-79
2023/07/03 10:40:45;;;;;;;6.47;3.90;;;23.90;68.90;;;;;;5070670;28;20557;-79
2023/07/03 10:43:13;;;;;;;5.93;4.03;;;24.00;69.00;;;;;;5072792;28;20473;-78
2023/07/03 10:45:41;;;;;;;7.33;4.43;;;24.10;69.50;;;;;;5073001;28;20935;-78
2023/07/03 10:48:18;;;;;;;5.50;3.70;;;24.00;70.40;;;;;;5072777;28;20471;-79
2023/07/03 10:50:53;;;;;;;7.97;4.17;;;24.00;68.90;;;;;;5073402;28;20485;-79
2023/07/03 10:53:26;;;;;;;4.63;3.67;;;24.00;69.80;;;;;;5073042;28;20465;-80
2023/07/03 10:56:00;;;;;;;6.77;4.67;;;24.00;69.80;;;;;;5073154;28;20970;-80
2023/07/03 10:58:35;;;;;;;6.47;3.63;;;24.20;69.50;;;;;;5073067;28;20462;-79
2023/07/03 11:01:20;;;;;;;7.80;4.07;;;24.00;68.30;;;;;;5072527;28;20484;-80
2023/07/03 11:03:56;;;;;;;6.77;4.23;;;24.10;68.90;;;;;;5073041;28;20462;-79
2023/07/03 11:06:31;;;;;;;9.40;3.90;;;24.10;69.10;;;;;;5073097;28;20972;-79
2023/07/03 11:09:03;;;;;;;8.80;4.70;;;24.20;69.40;;;;;;5072852;28;20967;-78
2023/07/03 11:11:45;;;;;;;7.80;4.20;;;24.20;68.70;;;;;;5073180;28;20968;-78
2023/07/03 11:14:23;;;;;;;8.87;4.43;;;24.20;68.00;;;;;;5072302;28;20474;-78
2023/07/03 11:17:04;;;;;;;8.33;4.30;;;24.20;68.20;;;;;;5072796;28;20466;-79
2023/07/03 11:19:42;;;;;;;11.57;4.57;;;24.10;68.30;;;;;;5072969;28;20457;-79
2023/07/03 11:22:17;;;;;;;9.57;4.03;;;24.00;68.40;;;;;;5072920;28;20917;-79
2023/07/03 11:24:54;;;;;;;7.60;3.73;;;24.00;69.10;;;;;;5072767;28;20470;-78
2023/07/03 11:27:56;;;;;;;;;;;;;;;;;;;;;
2023/07/03 11:30:25;;;;;;;5.70;3.73;;;23.90;70.30;;;;;;5061080;28;20588;-78
2023/07/03 11:32:54;;;;;;;10.83;4.27;;;23.90;70.90;;;;;;5072194;28;20481;-80
2023/07/03 11:35:23;;;;;;;10.73;4.43;;;24.00;72.10;;;;;;5072183;28;20527;-80
2023/07/03 11:38:00;;;;;;;7.17;3.77;;;24.00;72.80;;;;;;5072687;28;20470;-80
2023/07/03 11:40:35;;;;;;;8.93;4.20;;;24.00;71.90;;;;;;5071521;28;20985;-81
2023/07/03 11:43:24;;;;;;;4.80;3.40;;;24.00;71.80;;;;;;5070184;28;20458;-80
2023/07/03 11:46:02;;;;;;;6.80;3.97;;;24.00;71.60;;;;;;5049868;28;20478;-80
2023/07/03 11:48:31;;;;;;;10.20;4.30;;;24.10;72.10;;;;;;5067606;28;20537;-80
2023/07/03 11:51:01;;;;;;;7.97;3.50;;;24.00;71.20;;;;;;5066534;28;20519;-78
2023/07/03 11:53:33;;;;;;;9.67;3.43;;;24.00;71.60;;;;;;5071234;28;20481;-80
2023/07/03 11:56:00;;;;;;;5.87;3.37;;;23.90;71.60;;;;;;5065216;28;20477;-80
2023/07/03 11:58:30;;;;;;;6.83;3.60;;;24.00;72.00;;;;;;5059087;28;20463;-80
2023/07/03 12:01:26;;;;;;;6.80;3.50;;;24.00;71.90;;;;;;5070268;28;20470;-79
2023/07/03 12:03:55;;;;;;;5.47;4.17;;;24.00;72.50;;;;;;5056918;28;20467;-79
2023/07/03 12:06:49;;;;;;;6.90;3.83;;;24.00;72.70;;;;;;5067293;28;20509;-79
2023/07/03 12:09:36;;;;;;;10.77;4.20;;;24.00;72.80;;;;;;5068373;28;20454;-79
2023/07/03 12:12:18;;;;;;;9.50;4.30;;;23.90;72.30;;;;;;5067200;28;20955;-80
2023/07/03 12:15:09;;;;;;;14.53;6.60;;;23.80;73.00;;;;;;5067110;28;20473;-79
2023/07/03 12:17:37;;;;;;;7.17;4.93;;;23.90;74.40;;;;;;5070457;28;20473;-79
2023/07/03 12:20:07;;;;;;;4.87;3.20;;;23.90;73.80;;;;;;5072402;28;20450;-78
2023/07/03 12:22:50;;;;;;;10.10;4.40;;;23.70;71.60;;;;;;5074068;28;20470;-79
2023/07/03 12:25:20;;;;;;;12.97;4.37;;;23.60;71.60;;;;;;5074782;28;20470;-79
2023/07/03 12:27:51;;;;;;;7.27;4.87;;;23.50;71.20;;;;;;5074864;28;20474;-79
2023/07/03 12:30:27;;;;;;;14.60;8.97;;;23.40;71.20;;;;;;5069406;28;20478;-79
2023/07/03 12:32:56;;;;;;;9.83;8.17;;;23.40;72.00;;;;;;5068683;28;20500;-78
2023/07/03 12:35:39;;;;;;;13.83;11.53;;;23.40;72.50;;;;;;5074784;28;20477;-78
2023/07/03 12:38:29;;;;;;;11.10;4.97;;;23.50;74.10;;;;;;5072685;28;20556;-78
2023/07/03 12:40:55;;;;;;;6.53;3.23;;;23.50;73.00;;;;;;5059131;28;20469;-79
2023/07/03 12:43:22;;;;;;;9.90;6.40;;;23.60;73.30;;;;;;5055743;28;20494;-79
2023/07/03 12:45:52;;;;;;;8.83;5.10;;;23.60;73.20;;;;;;5055209;28;20953;-79
2023/07/03 12:48:22;;;;;;;9.80;4.97;;;23.60;74.00;;;;;;5071029;28;20523;-77
2023/07/03 12:50:51;;;;;;;9.00;5.97;;;23.70;73.60;;;;;;5075356;28;20473;-78
2023/07/03 12:53:19;;;;;;;8.20;4.50;;;23.80;74.00;;;;;;5074868;28;20461;-79
2023/07/03 12:55:51;;;;;;;6.47;4.37;;;23.80;74.20;;;;;;5074848;28;20808;-78
2023/07/03 12:58:20;;;;;;;8.93;5.33;;;23.80;74.50;;;;;;5074526;28;21018;-77
2023/07/03 13:00:47;;;;;;;9.80;5.60;;;23.90;74.20;;;;;;5074324;28;20535;-78